createdAt,value
2022-10-26T00:01:11.477Z,4.85
2022-10-26T00:03:39.448Z,5.38
2022-10-26T00:06:26.854Z,4.53
2022-10-26T00:08:53.397Z,5.53
2022-10-26T00:11:19.970Z,6.90
2022-10-26T00:13:46.742Z,3.95
2022-10-26T00:16:26.815Z,4.18
2022-10-26T00:18:53.431Z,5.05
2022-10-26T00:21:19.863Z,5.80
2022-10-26T00:23:46.363Z,5.13
2022-10-26T00:26:12.990Z,4.93
2022-10-26T00:28:39.527Z,6.32
2022-10-26T00:31:08.809Z,3.30
2022-10-26T00:33:36.005Z,4.55
2022-10-26T00:36:02.694Z,5.03
2022-10-26T00:38:29.211Z,4.70
2022-10-26T00:40:55.833Z,5.68
2022-10-26T00:43:22.168Z,4.25
2022-10-26T00:45:55.876Z,5.05
2022-10-26T00:48:46.587Z,3.15
2022-10-26T00:51:41.606Z,6.10
2022-10-26T00:54:13.377Z,2.63
2022-10-26T00:56:40.665Z,2.60
2022-10-26T00:59:11.221Z,4.38
2022-10-26T01:01:41.073Z,2.70
2022-10-26T01:04:07.611Z,6.88
2022-10-26T01:06:36.072Z,2.60
2022-10-26T01:09:10.175Z,5.25
2022-10-26T01:11:36.569Z,6.97
2022-10-26T01:14:06.017Z,4.13
2022-10-26T01:16:54.872Z,4.70
2022-10-26T01:19:47.701Z,5.57
2022-10-26T01:23:03.705Z,4.85
2022-10-26T01:25:45.976Z,7.55
2022-10-26T01:28:41.719Z,4.32
2022-10-26T01:31:15.771Z,4.25
2022-10-26T01:33:46.942Z,3.10
2022-10-26T01:36:23.005Z,10.38
2022-10-26T01:38:58.651Z,4.93
2022-10-26T01:41:41.354Z,5.30
2022-10-26T01:44:25.004Z,3.80
2022-10-26T01:46:54.567Z,4.82
2022-10-26T01:49:25.849Z,3.90
2022-10-26T01:51:52.249Z,3.95
2022-10-26T01:54:18.705Z,3.03
2022-10-26T01:56:53.627Z,2.45
2022-10-26T01:59:43.111Z,2.65
2022-10-26T02:02:37.551Z,6.07
2022-10-26T02:05:31.361Z,2.63
2022-10-26T02:08:26.193Z,4.95
2022-10-26T02:11:26.375Z,5.50
2022-10-26T02:14:01.257Z,2.67
2022-10-26T02:16:56.289Z,4.72
2022-10-26T02:19:29.460Z,2.65
2022-10-26T02:22:33.552Z,2.72
2022-10-26T02:25:05.367Z,1.63
2022-10-26T02:27:37.577Z,2.60
2022-10-26T02:30:05.459Z,5.25
2022-10-26T02:32:36.209Z,3.08
2022-10-26T02:35:05.201Z,3.70
2022-10-26T02:37:35.285Z,4.38
2022-10-26T02:40:09.098Z,2.25
2022-10-26T02:42:36.809Z,1.85
2022-10-26T02:45:10.020Z,5.13
2022-10-26T02:47:36.571Z,3.38
2022-10-26T02:50:03.727Z,7.68
2022-10-26T02:52:47.848Z,7.50
2022-10-26T02:55:29.489Z,3.70
2022-10-26T02:58:00.260Z,3.95
2022-10-26T03:00:26.813Z,2.17
2022-10-26T03:02:57.322Z,1.35
2022-10-26T03:05:29.837Z,2.90
2022-10-26T03:07:56.882Z,4.68
2022-10-26T03:10:27.142Z,3.67
2022-10-26T03:12:53.600Z,3.25
2022-10-26T03:15:21.033Z,6.13
2022-10-26T03:17:47.836Z,3.50
2022-10-26T03:20:14.552Z,4.10
2022-10-26T03:22:41.057Z,3.70
2022-10-26T03:27:39.615Z,2.67
2022-10-26T03:30:06.593Z,1.33
2022-10-26T03:32:33.139Z,1.90
2022-10-26T03:34:59.796Z,6.18
2022-10-26T03:37:26.208Z,5.10
2022-10-26T03:39:52.593Z,3.92
2022-10-26T03:42:18.981Z,4.55
2022-10-26T03:44:47.119Z,4.65
2022-10-26T03:47:13.616Z,5.68
2022-10-26T03:49:40.061Z,4.43
2022-10-26T03:52:06.454Z,2.45
2022-10-26T03:54:32.865Z,1.65
2022-10-26T03:56:59.279Z,2.55
2022-10-26T03:59:25.661Z,1.83
2022-10-26T04:01:55.354Z,1.23
2022-10-26T04:04:24.193Z,1.20
2022-10-26T04:06:50.614Z,6.72
2022-10-26T04:09:17.029Z,2.45
2022-10-26T04:11:43.429Z,6.13
2022-10-26T04:14:10.858Z,4.30
2022-10-26T04:16:37.579Z,3.75
2022-10-26T04:19:04.310Z,3.83
2022-10-26T04:21:32.882Z,2.88
2022-10-26T04:23:59.435Z,2.28
2022-10-26T04:26:25.870Z,3.10
2022-10-26T04:28:52.290Z,4.53
2022-10-26T04:31:18.805Z,5.28
2022-10-26T04:33:52.552Z,3.42
2022-10-26T04:36:18.993Z,5.05
2022-10-26T04:38:45.463Z,2.25
2022-10-26T04:41:11.895Z,2.47
2022-10-26T04:43:39.300Z,3.38
2022-10-26T04:46:05.985Z,3.50
2022-10-26T04:48:32.435Z,4.97
2022-10-26T04:51:00.107Z,1.98
2022-10-26T04:53:27.672Z,3.45
2022-10-26T04:55:58.410Z,3.60
2022-10-26T04:58:24.924Z,6.32
2022-10-26T05:00:51.572Z,3.75
2022-10-26T05:03:17.960Z,2.08
2022-10-26T05:05:44.350Z,3.13
2022-10-26T05:08:15.516Z,3.30
2022-10-26T05:10:42.220Z,2.88
2022-10-26T05:13:10.471Z,2.72
2022-10-26T05:15:36.863Z,4.03
2022-10-26T05:18:05.644Z,2.63
2022-10-26T05:20:34.358Z,4.10
2022-10-26T05:23:02.861Z,3.25
2022-10-26T05:25:31.751Z,3.72
2022-10-26T05:27:59.666Z,1.80
2022-10-26T05:30:26.274Z,2.33
2022-10-26T05:33:02.142Z,3.25
2022-10-26T05:35:28.902Z,2.97
2022-10-26T05:37:55.701Z,3.72
2022-10-26T05:40:22.522Z,3.53
2022-10-26T05:42:50.843Z,2.70
2022-10-26T05:45:20.569Z,3.60
2022-10-26T05:47:47.301Z,2.45
2022-10-26T05:50:14.224Z,3.42
2022-10-26T05:52:44.583Z,2.35
2022-10-26T05:55:18.620Z,2.70
2022-10-26T05:57:45.313Z,1.85
2022-10-26T06:00:23.754Z,1.95
2022-10-26T06:03:37.851Z,4.65
2022-10-26T06:06:14.721Z,4.03
2022-10-26T06:08:42.933Z,2.05
2022-10-26T06:11:09.987Z,5.03
2022-10-26T06:13:36.704Z,4.53
2022-10-26T06:16:29.234Z,2.45
2022-10-26T06:19:10.870Z,1.83
2022-10-26T06:21:46.595Z,2.85
2022-10-26T06:24:41.950Z,4.10
2022-10-26T06:27:30.143Z,2.45
2022-10-26T06:30:12.157Z,2.63
2022-10-26T06:32:40.577Z,2.63
2022-10-26T06:35:22.959Z,3.85
2022-10-26T06:37:50.364Z,3.65
2022-10-26T06:40:18.671Z,3.75
2022-10-26T06:42:45.436Z,6.05
2022-10-26T06:47:54.187Z,4.00
2022-10-26T06:50:52.812Z,4.20
2022-10-26T06:53:26.425Z,5.25
2022-10-26T06:55:53.413Z,22.83
2022-10-26T06:58:22.464Z,14.18
2022-10-26T07:00:50.932Z,9.15
2022-10-26T07:03:17.695Z,10.25
2022-10-26T07:05:45.188Z,4.18
2022-10-26T07:08:12.173Z,6.47
2022-10-26T07:10:39.365Z,9.43
2022-10-26T07:13:06.826Z,8.25
2022-10-26T07:15:37.660Z,4.45
2022-10-26T07:18:05.773Z,4.50
2022-10-26T07:20:36.139Z,4.90
2022-10-26T07:23:02.781Z,3.08
2022-10-26T07:25:29.372Z,2.67
2022-10-26T07:27:59.770Z,5.07
2022-10-26T07:30:28.055Z,3.55
2022-10-26T07:33:08.201Z,2.95
2022-10-26T07:35:34.950Z,5.15
2022-10-26T07:38:02.121Z,3.95
2022-10-26T07:40:28.971Z,5.93
2022-10-26T07:43:00.180Z,3.75
2022-10-26T07:45:28.370Z,3.90
2022-10-26T07:47:54.989Z,5.03
2022-10-26T07:50:21.805Z,2.80
2022-10-26T07:52:48.571Z,4.75
2022-10-26T07:55:15.391Z,5.45
2022-10-26T07:57:41.831Z,3.15
2022-10-26T08:00:09.773Z,4.13
2022-10-26T08:02:37.134Z,6.07
2022-10-26T08:05:04.406Z,3.30
2022-10-26T08:07:30.850Z,6.28
2022-10-26T08:09:57.267Z,2.75
2022-10-26T08:12:23.654Z,1.85
2022-10-26T08:14:50.444Z,5.60
2022-10-26T08:17:17.040Z,3.70
2022-10-26T08:19:43.443Z,6.07
2022-10-26T08:22:10.108Z,4.10
2022-10-26T08:24:36.682Z,3.28
2022-10-26T08:27:03.100Z,11.65
2022-10-26T08:29:29.480Z,6.13
2022-10-26T08:31:56.976Z,3.90
2022-10-26T08:34:23.440Z,4.38
2022-10-26T08:36:50.484Z,2.70
2022-10-26T08:39:16.994Z,5.63
2022-10-26T08:41:46.062Z,4.25
2022-10-26T08:44:23.885Z,5.40
2022-10-26T08:46:55.236Z,4.97
2022-10-26T08:49:38.183Z,5.68
2022-10-26T08:52:06.307Z,6.50
2022-10-26T08:54:42.160Z,6.90
2022-10-26T08:57:19.182Z,4.72
2022-10-26T09:00:00.441Z,6.80
2022-10-26T09:02:27.201Z,7.35
2022-10-26T09:04:54.871Z,6.53
2022-10-26T09:07:42.174Z,6.35
2022-10-26T09:10:11.474Z,4.70
2022-10-26T09:12:43.168Z,3.97
2022-10-26T09:15:31.088Z,3.13
2022-10-26T09:18:08.074Z,4.75
2022-10-26T09:20:40.374Z,5.35
2022-10-26T09:23:29.844Z,4.05
2022-10-26T09:26:01.479Z,5.53
2022-10-26T09:28:35.249Z,5.57
2022-10-26T09:31:04.321Z,7.20
2022-10-26T09:33:36.966Z,6.65
2022-10-26T09:36:11.851Z,8.68
2022-10-26T09:38:47.734Z,15.30
2022-10-26T09:41:49.989Z,14.48
2022-10-26T09:44:31.019Z,9.13
2022-10-26T09:47:12.877Z,10.82
2022-10-26T09:50:14.699Z,12.00
2022-10-26T09:52:41.076Z,9.10
2022-10-26T09:55:11.489Z,5.57
2022-10-26T09:57:42.664Z,4.10
2022-10-26T10:00:16.456Z,2.75
2022-10-26T10:02:45.547Z,5.13
2022-10-26T10:08:25.429Z,4.15
2022-10-26T10:11:07.049Z,3.60
2022-10-26T10:13:36.796Z,5.47
2022-10-26T10:16:23.690Z,9.25
2022-10-26T10:18:59.119Z,4.45
2022-10-26T10:21:40.917Z,3.97
2022-10-26T10:24:32.860Z,4.97
2022-10-26T10:27:17.552Z,5.43
2022-10-26T10:29:52.685Z,2.65
2022-10-26T10:32:23.064Z,4.75
2022-10-26T10:34:51.336Z,3.50
2022-10-26T10:37:27.576Z,9.15
2022-10-26T10:40:08.425Z,3.70
2022-10-26T10:42:41.090Z,3.88
2022-10-26T10:45:20.304Z,4.25
2022-10-26T10:48:01.050Z,7.50
2022-10-26T10:50:29.147Z,5.80
2022-10-26T10:53:14.438Z,5.32
2022-10-26T10:55:46.894Z,5.30
2022-10-26T10:58:29.591Z,4.00
2022-10-26T11:00:57.500Z,4.18
2022-10-26T11:03:34.799Z,5.57
2022-10-26T11:06:31.463Z,3.38
2022-10-26T11:09:06.993Z,3.85
2022-10-26T11:11:45.765Z,3.13
2022-10-26T11:14:15.416Z,4.85
2022-10-26T11:16:50.221Z,1.98
2022-10-26T11:19:43.299Z,5.03
2022-10-26T11:22:22.385Z,2.63
2022-10-26T11:25:07.400Z,3.38
2022-10-26T11:27:47.377Z,7.65
2022-10-26T11:30:19.783Z,3.35
2022-10-26T11:32:59.435Z,4.43
2022-10-26T11:35:47.239Z,3.25
2022-10-26T11:38:45.342Z,5.30
2022-10-26T11:41:25.061Z,5.18
2022-10-26T11:44:05.763Z,4.20
2022-10-26T11:46:41.825Z,3.92
2022-10-26T11:49:14.206Z,7.68
2022-10-26T11:52:01.987Z,4.68
2022-10-26T11:54:36.041Z,7.00
2022-10-26T11:57:05.193Z,7.55
2022-10-26T11:59:37.252Z,7.47
2022-10-26T12:02:15.799Z,5.00
2022-10-26T12:04:45.896Z,4.45
2022-10-26T12:07:27.857Z,6.07
2022-10-26T12:09:56.087Z,4.40
2022-10-26T12:12:28.929Z,7.38
2022-10-26T12:15:30.926Z,4.25
2022-10-26T12:18:43.118Z,9.00
2022-10-26T12:21:11.571Z,9.48
2022-10-26T12:23:52.678Z,9.25
2022-10-26T12:26:28.326Z,12.98
2022-10-26T12:29:03.964Z,7.53
2022-10-26T12:31:36.488Z,9.90
2022-10-26T12:34:12.402Z,7.50
2022-10-26T12:37:07.879Z,8.20
2022-10-26T12:39:35.490Z,12.82
2022-10-26T12:42:04.649Z,7.55
2022-10-26T12:44:41.340Z,8.77
2022-10-26T12:47:10.747Z,5.22
2022-10-26T12:50:00.110Z,10.40
2022-10-26T12:52:31.395Z,10.20
2022-10-26T12:55:09.460Z,8.25
2022-10-26T12:58:07.607Z,10.32
2022-10-26T13:00:40.124Z,5.55
2022-10-26T13:03:34.728Z,9.25
2022-10-26T13:06:23.500Z,5.05
2022-10-26T13:09:00.109Z,9.10
2022-10-26T13:11:41.896Z,9.38
2022-10-26T13:14:27.211Z,5.93
2022-10-26T13:16:54.550Z,7.93
2022-10-26T13:19:30.940Z,11.10
2022-10-26T13:24:38.968Z,6.93
2022-10-26T13:27:07.332Z,7.18
2022-10-26T13:30:14.469Z,6.93
2022-10-26T13:32:49.169Z,7.47
2022-10-26T13:35:17.600Z,11.30
2022-10-26T13:37:50.439Z,8.52
2022-10-26T13:40:20.463Z,10.18
2022-10-26T13:42:51.926Z,11.32
2022-10-26T13:45:22.854Z,9.40
2022-10-26T13:47:56.183Z,9.65
2022-10-26T13:50:27.652Z,8.80
2022-10-26T13:53:01.173Z,8.25
2022-10-26T13:55:52.875Z,7.38
2022-10-26T13:58:33.459Z,10.13
2022-10-26T14:01:21.527Z,8.52
2022-10-26T14:03:50.963Z,6.55
2022-10-26T14:06:37.349Z,8.27
2022-10-26T14:09:13.320Z,8.57
2022-10-26T14:11:47.088Z,7.88
2022-10-26T14:14:26.576Z,8.98
2022-10-26T14:16:54.079Z,10.82
2022-10-26T14:19:25.867Z,8.35
2022-10-26T14:21:55.220Z,7.78
2022-10-26T14:24:50.173Z,11.50
2022-10-26T14:27:31.651Z,8.73
2022-10-26T14:30:21.099Z,13.10
2022-10-26T14:32:45.521Z,7.45
2022-10-26T14:35:13.773Z,5.95
2022-10-26T14:37:49.030Z,9.23
2022-10-26T14:40:21.806Z,7.33
2022-10-26T14:42:51.090Z,9.50
2022-10-26T14:45:48.642Z,6.65
2022-10-26T14:48:22.845Z,11.23
2022-10-26T14:51:27.243Z,9.73
2022-10-26T14:53:57.425Z,8.45
2022-10-26T14:56:36.009Z,6.35
2022-10-26T14:59:33.233Z,12.02
2022-10-26T15:02:04.805Z,9.52
2022-10-26T15:04:37.703Z,10.68
2022-10-26T15:07:13.079Z,4.43
2022-10-26T15:09:44.195Z,9.10
2022-10-26T15:12:19.783Z,8.48
2022-10-26T15:14:46.760Z,7.73
2022-10-26T15:17:27.607Z,9.57
2022-10-26T15:19:55.357Z,7.90
2022-10-26T15:22:30.908Z,9.48
2022-10-26T15:25:01.748Z,12.93
2022-10-26T15:27:28.244Z,16.00
2022-10-26T15:30:19.128Z,7.63
2022-10-26T15:32:46.159Z,11.63
2022-10-26T15:35:15.657Z,7.40
2022-10-26T15:37:42.440Z,12.30
2022-10-26T15:40:09.220Z,5.22
2022-10-26T15:42:40.158Z,10.05
2022-10-26T15:45:30.128Z,5.90
2022-10-26T15:47:59.250Z,8.23
2022-10-26T15:50:27.937Z,8.50
2022-10-26T15:53:03.134Z,13.70
2022-10-26T15:55:30.895Z,8.60
2022-10-26T15:57:57.557Z,9.32
2022-10-26T16:00:23.964Z,8.68
2022-10-26T16:02:50.546Z,5.28
2022-10-26T16:05:17.371Z,12.05
2022-10-26T16:07:47.734Z,5.53
2022-10-26T16:10:18.676Z,6.53
2022-10-26T16:12:45.227Z,10.63
2022-10-26T16:15:17.894Z,9.18
2022-10-26T16:17:44.942Z,5.78
2022-10-26T16:20:22.790Z,10.88
2022-10-26T16:22:51.105Z,10.65
2022-10-26T16:25:20.347Z,11.07
2022-10-26T16:27:47.281Z,12.63
2022-10-26T16:30:14.820Z,7.88
2022-10-26T16:32:42.273Z,12.98
2022-10-26T16:35:10.361Z,9.02
2022-10-26T16:37:37.020Z,8.80
2022-10-26T16:40:04.163Z,5.63
2022-10-26T16:42:31.693Z,15.20
2022-10-26T16:45:02.552Z,10.70
2022-10-26T16:47:32.224Z,9.10
2022-10-26T16:49:58.600Z,8.60
2022-10-26T16:52:24.997Z,14.55
2022-10-26T16:54:51.436Z,11.35
2022-10-26T16:57:17.891Z,10.13
2022-10-26T16:59:44.376Z,11.02
2022-10-26T17:02:14.712Z,10.00
2022-10-26T17:04:41.261Z,13.25
2022-10-26T17:07:10.960Z,16.15
2022-10-26T17:09:38.588Z,18.05
2022-10-26T17:12:05.355Z,6.57
2022-10-26T17:14:32.670Z,10.13
2022-10-26T17:16:59.186Z,8.48
2022-10-26T17:19:25.636Z,5.60
2022-10-26T17:21:54.057Z,7.25
2022-10-26T17:24:20.905Z,8.00
2022-10-26T17:26:47.528Z,9.05
2022-10-26T17:29:14.169Z,10.40
2022-10-26T17:31:41.743Z,7.07
2022-10-26T17:34:08.160Z,8.20
2022-10-26T17:36:34.698Z,10.68
2022-10-26T17:39:01.216Z,9.27
2022-10-26T17:41:28.726Z,12.65
2022-10-26T17:43:56.212Z,10.07
2022-10-26T17:46:25.205Z,7.90
2022-10-26T17:48:56.282Z,7.63
2022-10-26T17:51:23.083Z,9.13
2022-10-26T17:53:50.974Z,8.77
2022-10-26T17:56:20.911Z,8.95
2022-10-26T17:58:55.502Z,9.80
2022-10-26T18:01:22.522Z,7.43
2022-10-26T18:03:50.413Z,7.72
2022-10-26T18:06:17.601Z,12.07
2022-10-26T18:08:45.073Z,8.45
2022-10-26T18:11:15.047Z,12.65
2022-10-26T18:13:41.549Z,11.20
2022-10-26T18:16:16.590Z,7.60
2022-10-26T18:18:50.091Z,9.05
2022-10-26T18:21:19.088Z,9.52
2022-10-26T18:23:46.685Z,10.25
2022-10-26T18:26:16.925Z,14.43
2022-10-26T18:28:43.625Z,9.43
2022-10-26T18:31:16.708Z,11.27
2022-10-26T18:33:43.779Z,12.20
2022-10-26T18:36:13.812Z,8.68
2022-10-26T18:38:40.747Z,10.20
2022-10-26T18:41:10.049Z,7.00
2022-10-26T18:43:44.997Z,13.15
2022-10-26T18:46:15.159Z,6.97
2022-10-26T18:48:44.349Z,11.38
2022-10-26T18:51:14.865Z,12.43
2022-10-26T18:53:42.859Z,11.20
2022-10-26T18:56:17.654Z,12.15
2022-10-26T18:58:55.478Z,10.50
2022-10-26T19:01:24.690Z,8.35
2022-10-26T19:04:12.792Z,8.57
2022-10-26T19:06:44.999Z,10.95
2022-10-26T19:09:11.437Z,8.82
2022-10-26T19:11:38.697Z,13.80
2022-10-26T19:14:05.420Z,11.55
2022-10-26T19:16:45.293Z,10.85
2022-10-26T19:19:14.107Z,12.25
2022-10-26T19:21:40.513Z,10.32
2022-10-26T19:24:11.736Z,12.00
2022-10-26T19:26:42.407Z,14.60
2022-10-26T19:29:14.682Z,13.63
2022-10-26T19:31:42.391Z,8.30
2022-10-26T19:34:11.055Z,8.52
2022-10-26T19:36:38.064Z,7.35
2022-10-26T19:39:04.561Z,11.65
2022-10-26T19:41:31.310Z,12.18
2022-10-26T19:46:30.959Z,10.32
2022-10-26T19:48:59.820Z,10.35
2022-10-26T19:51:28.377Z,9.90
2022-10-26T19:53:59.035Z,9.65
2022-10-26T19:56:28.658Z,8.40
2022-10-26T19:58:58.449Z,12.85
2022-10-26T20:01:25.223Z,10.35
2022-10-26T20:03:52.031Z,10.95
2022-10-26T20:06:24.810Z,9.00
2022-10-26T20:08:51.330Z,12.95
2022-10-26T20:11:18.132Z,10.18
2022-10-26T20:13:46.231Z,11.88
2022-10-26T20:16:14.026Z,13.93
2022-10-26T20:18:44.093Z,15.13
2022-10-26T20:21:14.696Z,8.90
2022-10-26T20:23:41.506Z,11.38
2022-10-26T20:26:08.423Z,9.40
2022-10-26T20:28:34.936Z,14.13
2022-10-26T20:31:01.601Z,9.02
2022-10-26T20:33:28.070Z,11.20
2022-10-26T20:35:58.667Z,12.70
2022-10-26T20:38:26.207Z,7.93
2022-10-26T20:40:57.775Z,11.00
2022-10-26T20:43:28.136Z,11.50
2022-10-26T20:45:56.004Z,11.50
2022-10-26T20:48:22.743Z,8.32
2022-10-26T20:51:04.948Z,13.45
2022-10-26T20:53:34.277Z,11.88
2022-10-26T20:56:04.464Z,12.20
2022-10-26T20:58:44.984Z,8.50
2022-10-26T21:01:29.355Z,11.75
2022-10-26T21:03:57.894Z,10.52
2022-10-26T21:06:25.309Z,16.73
2022-10-26T21:08:53.080Z,17.67
2022-10-26T21:11:20.800Z,15.35
2022-10-26T21:13:48.825Z,12.15
2022-10-26T21:16:16.600Z,12.65
2022-10-26T21:18:43.376Z,10.68
2022-10-26T21:21:10.201Z,8.32
2022-10-26T21:23:39.685Z,16.05
2022-10-26T21:26:07.705Z,10.32
2022-10-26T21:28:36.569Z,12.55
2022-10-26T21:31:04.729Z,10.23
2022-10-26T21:33:34.515Z,9.45
2022-10-26T21:36:02.458Z,7.50
2022-10-26T21:38:30.024Z,11.00
2022-10-26T21:41:10.871Z,9.00
2022-10-26T21:43:38.537Z,8.40
2022-10-26T21:46:06.234Z,11.80
2022-10-26T21:48:33.848Z,12.35
2022-10-26T21:51:06.606Z,13.48
2022-10-26T21:53:33.199Z,10.35
2022-10-26T21:56:01.496Z,9.30
2022-10-26T21:58:29.139Z,7.93
2022-10-26T22:00:55.676Z,10.10
2022-10-26T22:03:22.087Z,12.10
2022-10-26T22:05:52.223Z,9.25
2022-10-26T22:08:21.763Z,10.65
2022-10-26T22:10:48.202Z,11.70
2022-10-26T22:13:14.735Z,9.85
2022-10-26T22:15:41.242Z,10.43
2022-10-26T22:18:07.672Z,10.80
2022-10-26T22:20:34.058Z,7.90
2022-10-26T22:23:00.562Z,14.20
2022-10-26T22:25:26.985Z,8.93
2022-10-26T22:27:53.514Z,8.70
2022-10-26T22:30:20.050Z,10.00
2022-10-26T22:32:46.444Z,7.93
2022-10-26T22:35:28.441Z,10.32
2022-10-26T22:37:56.010Z,10.95
2022-10-26T22:40:22.387Z,13.43
2022-10-26T22:42:51.887Z,11.07
2022-10-26T22:45:18.902Z,8.50
2022-10-26T22:47:45.315Z,7.88
2022-10-26T22:50:11.701Z,13.10
2022-10-26T22:52:38.084Z,11.10
2022-10-26T22:55:04.667Z,8.80
2022-10-26T22:57:31.049Z,9.45
2022-10-26T22:59:57.439Z,9.52
2022-10-26T23:02:23.860Z,14.20
2022-10-26T23:04:50.330Z,12.13
2022-10-26T23:07:16.761Z,10.85
2022-10-26T23:09:43.140Z,9.70
2022-10-26T23:12:09.560Z,7.82
2022-10-26T23:14:35.927Z,8.00
2022-10-26T23:17:03.803Z,7.78
2022-10-26T23:19:30.184Z,14.85
2022-10-26T23:21:56.579Z,8.38
2022-10-26T23:24:23.053Z,7.68
2022-10-26T23:26:49.444Z,12.32
2022-10-26T23:29:16.381Z,8.63
2022-10-26T23:31:42.797Z,9.07
2022-10-26T23:34:09.218Z,7.95
2022-10-26T23:36:35.626Z,11.85
2022-10-26T23:39:02.028Z,6.97
2022-10-26T23:41:28.937Z,9.20
2022-10-26T23:43:55.335Z,13.30
2022-10-26T23:46:21.783Z,9.02
2022-10-26T23:48:48.215Z,8.18
2022-10-26T23:51:14.656Z,6.57
2022-10-26T23:53:41.057Z,10.07
2022-10-26T23:56:07.816Z,8.95
2022-10-26T23:58:35.384Z,9.68
